createdAt,value
2023-03-15T00:01:07.042Z,8.73
2023-03-15T00:03:37.419Z,7.70
2023-03-15T00:06:05.146Z,7.63
2023-03-15T00:08:35.291Z,6.18
2023-03-15T00:11:02.895Z,5.30
2023-03-15T00:13:30.748Z,4.43
2023-03-15T00:16:01.313Z,4.63
2023-03-15T00:18:28.743Z,3.80
2023-03-15T00:20:56.150Z,2.63
2023-03-15T00:23:23.456Z,2.30
2023-03-15T00:25:51.294Z,2.30
2023-03-15T00:28:18.752Z,3.13
2023-03-15T00:30:46.506Z,2.70
2023-03-15T00:33:15.679Z,2.65
2023-03-15T00:35:44.283Z,2.70
2023-03-15T00:38:12.015Z,4.00
2023-03-15T00:40:42.172Z,3.93
2023-03-15T00:43:09.539Z,6.25
2023-03-15T00:45:36.948Z,4.50
2023-03-15T00:48:04.550Z,4.35
2023-03-15T00:50:31.810Z,7.93
2023-03-15T00:52:59.146Z,9.73
2023-03-15T00:55:28.565Z,11.20
2023-03-15T00:57:56.349Z,7.53
2023-03-15T01:00:24.726Z,8.88
2023-03-15T01:02:53.030Z,10.50
2023-03-15T01:05:21.248Z,10.40
2023-03-15T01:07:49.033Z,9.60
2023-03-15T01:10:16.679Z,8.50
2023-03-15T01:12:44.096Z,10.45
2023-03-15T01:15:13.086Z,8.82
2023-03-15T01:17:40.616Z,7.50
2023-03-15T01:20:10.409Z,7.25
2023-03-15T01:22:37.697Z,7.68
2023-03-15T01:25:05.460Z,7.03
2023-03-15T01:27:33.344Z,7.63
2023-03-15T01:30:01.693Z,8.10
2023-03-15T01:32:29.094Z,8.80
2023-03-15T01:34:57.004Z,8.10
2023-03-15T01:37:24.789Z,7.93
2023-03-15T01:39:52.307Z,7.65
2023-03-15T01:42:19.709Z,7.97
2023-03-15T01:44:58.026Z,7.80
2023-03-15T01:47:26.150Z,8.10
2023-03-15T01:50:15.012Z,7.78
2023-03-15T01:52:42.417Z,8.02
2023-03-15T01:55:17.274Z,8.07
2023-03-15T01:57:57.811Z,7.40
2023-03-15T02:00:27.702Z,6.45
2023-03-15T02:03:08.850Z,5.88
2023-03-15T02:05:46.156Z,6.03
2023-03-15T02:08:18.478Z,5.73
2023-03-15T02:10:53.955Z,5.22
2023-03-15T02:13:22.902Z,3.88
2023-03-15T02:15:53.556Z,3.78
2023-03-15T02:18:26.363Z,4.00
2023-03-15T02:21:00.444Z,4.67
2023-03-15T02:23:28.015Z,5.97
2023-03-15T02:26:19.725Z,6.50
2023-03-15T02:28:47.028Z,6.38
2023-03-15T02:31:14.714Z,6.22
2023-03-15T02:33:43.356Z,6.03
2023-03-15T02:36:20.983Z,6.78
2023-03-15T02:38:48.827Z,6.00
2023-03-15T02:41:28.787Z,6.07
2023-03-15T02:43:59.854Z,5.63
2023-03-15T02:46:27.202Z,5.50
2023-03-15T02:48:54.541Z,6.32
2023-03-15T02:51:23.764Z,6.18
2023-03-15T02:53:51.789Z,6.75
2023-03-15T02:56:19.941Z,6.93
2023-03-15T02:58:47.503Z,6.73
2023-03-15T03:01:15.874Z,6.72
2023-03-15T03:03:43.781Z,6.57
2023-03-15T03:06:11.531Z,6.25
2023-03-15T03:08:39.334Z,6.50
2023-03-15T03:11:08.158Z,6.60
2023-03-15T03:13:36.971Z,6.63
2023-03-15T03:16:06.246Z,6.57
2023-03-15T03:18:36.696Z,6.55
2023-03-15T03:21:07.008Z,6.03
2023-03-15T03:23:34.820Z,6.40
2023-03-15T03:26:03.160Z,6.30
2023-03-15T03:28:31.797Z,6.00
2023-03-15T03:31:00.785Z,6.25
2023-03-15T03:33:28.865Z,6.25
2023-03-15T03:36:02.281Z,6.80
2023-03-15T03:38:30.455Z,6.22
2023-03-15T03:41:00.799Z,7.00
2023-03-15T03:43:32.717Z,6.22
2023-03-15T03:46:00.305Z,6.30
2023-03-15T03:48:28.188Z,5.50
2023-03-15T03:50:55.516Z,5.50
2023-03-15T03:53:22.978Z,5.88
2023-03-15T03:55:50.391Z,5.93
2023-03-15T03:58:21.335Z,6.05
2023-03-15T04:00:56.778Z,5.90
2023-03-15T04:03:29.767Z,6.20
2023-03-15T04:06:19.377Z,5.57
2023-03-15T04:08:48.219Z,5.55
2023-03-15T04:11:44.871Z,5.70
2023-03-15T04:14:13.076Z,5.60
2023-03-15T04:16:41.957Z,5.43
2023-03-15T04:19:12.958Z,5.95
2023-03-15T04:21:47.601Z,5.35
2023-03-15T04:24:50.823Z,4.97
2023-03-15T04:27:58.780Z,4.90
2023-03-15T04:30:47.961Z,5.10
2023-03-15T04:33:35.486Z,5.10
2023-03-15T04:36:08.983Z,3.85
2023-03-15T04:39:05.769Z,4.72
2023-03-15T04:41:55.676Z,4.30
2023-03-15T04:44:29.275Z,4.40
2023-03-15T04:47:09.407Z,3.88
2023-03-15T04:49:59.740Z,5.03
2023-03-15T04:52:57.301Z,3.97
2023-03-15T04:55:43.059Z,4.33
2023-03-15T04:58:23.550Z,3.67
2023-03-15T05:01:11.219Z,3.65
2023-03-15T05:03:54.872Z,3.58
2023-03-15T05:06:45.998Z,3.80
2023-03-15T05:09:39.751Z,4.10
2023-03-15T05:12:16.224Z,3.45
2023-03-15T05:14:56.079Z,4.30
2023-03-15T05:17:29.510Z,3.50
2023-03-15T05:20:23.230Z,3.55
2023-03-15T05:23:07.532Z,3.53
2023-03-15T05:25:43.352Z,3.97
2023-03-15T05:28:22.750Z,3.80
2023-03-15T05:31:08.618Z,3.53
2023-03-15T05:33:55.079Z,3.72
2023-03-15T05:36:28.982Z,3.10
2023-03-15T05:39:19.442Z,4.20
2023-03-15T05:42:07.627Z,2.88
2023-03-15T05:44:55.508Z,2.45
2023-03-15T05:47:58.343Z,1.80
2023-03-15T05:50:49.921Z,0.90
2023-03-15T05:53:17.284Z,0.50
2023-03-15T05:56:19.804Z,0.40
2023-03-15T05:59:05.691Z,0.45
2023-03-15T06:01:35.811Z,0.40
2023-03-15T06:04:14.588Z,0.40
2023-03-15T06:06:41.903Z,0.30
2023-03-15T06:09:11.391Z,0.38
2023-03-15T06:11:39.261Z,0.30
2023-03-15T06:14:07.796Z,0.40
2023-03-15T06:16:45.425Z,0.40
2023-03-15T06:19:12.828Z,0.50
2023-03-15T06:21:40.414Z,0.30
2023-03-15T06:24:16.370Z,0.55
2023-03-15T06:26:43.825Z,0.52
2023-03-15T06:29:11.660Z,0.50
2023-03-15T06:31:39.244Z,0.50
2023-03-15T06:34:09.850Z,0.60
2023-03-15T06:36:37.104Z,0.47
2023-03-15T06:39:05.784Z,0.50
2023-03-15T06:41:33.100Z,0.70
2023-03-15T06:44:08.303Z,0.55
2023-03-15T06:46:36.659Z,0.60
2023-03-15T06:49:03.979Z,0.60
2023-03-15T06:51:31.383Z,0.68
2023-03-15T06:53:58.709Z,0.83
2023-03-15T06:56:26.540Z,0.80
2023-03-15T06:58:53.846Z,0.63
2023-03-15T07:01:21.157Z,0.90
2023-03-15T07:03:48.508Z,0.90
2023-03-15T07:06:16.815Z,1.10
2023-03-15T07:08:44.177Z,1.05
2023-03-15T07:11:11.634Z,1.30
2023-03-15T07:13:38.952Z,1.10
2023-03-15T07:16:06.432Z,1.30
2023-03-15T07:18:37.048Z,1.57
2023-03-15T07:21:04.997Z,1.80
2023-03-15T07:23:32.332Z,1.80
2023-03-15T07:25:59.676Z,1.42
2023-03-15T07:28:27.192Z,1.65
2023-03-15T07:30:58.148Z,1.53
2023-03-15T07:33:25.935Z,1.30
2023-03-15T07:35:53.800Z,1.50
2023-03-15T07:38:25.635Z,1.13
2023-03-15T07:40:52.997Z,1.20
2023-03-15T07:43:20.613Z,0.80
2023-03-15T07:45:51.175Z,0.80
2023-03-15T07:48:18.720Z,0.88
2023-03-15T07:50:46.168Z,0.63
2023-03-15T07:53:14.083Z,0.85
2023-03-15T07:55:41.533Z,0.90
2023-03-15T07:58:08.865Z,1.10
2023-03-15T08:00:36.224Z,1.08
2023-03-15T08:03:03.999Z,0.77
2023-03-15T08:05:31.364Z,0.95
2023-03-15T08:07:58.789Z,1.10
2023-03-15T08:10:26.232Z,0.88
2023-03-15T08:12:53.632Z,0.80
2023-03-15T08:15:20.948Z,0.75
2023-03-15T08:17:48.530Z,1.00
2023-03-15T08:20:17.834Z,0.70
2023-03-15T08:22:48.687Z,1.02
2023-03-15T08:25:18.444Z,1.00
2023-03-15T08:27:45.888Z,1.00
2023-03-15T08:30:13.984Z,0.85
2023-03-15T08:32:42.203Z,0.80
2023-03-15T08:35:09.947Z,0.80
2023-03-15T08:37:37.273Z,0.80
2023-03-15T08:40:09.859Z,0.93
2023-03-15T08:42:37.574Z,0.82
2023-03-15T08:45:07.114Z,0.95
2023-03-15T08:47:37.756Z,0.90
2023-03-15T08:50:07.106Z,0.90
2023-03-15T08:52:34.456Z,1.08
2023-03-15T08:55:01.773Z,1.02
2023-03-15T08:57:29.804Z,0.88
2023-03-15T08:59:57.700Z,1.10
2023-03-15T09:02:25.147Z,0.82
2023-03-15T09:04:53.544Z,1.17
2023-03-15T09:07:21.929Z,1.50
2023-03-15T09:09:49.327Z,1.10
2023-03-15T09:12:17.012Z,1.20
2023-03-15T09:14:44.451Z,0.90
2023-03-15T09:17:11.890Z,1.00
2023-03-15T09:19:41.799Z,1.38
2023-03-15T09:22:23.453Z,1.60
2023-03-15T09:24:52.711Z,1.20
2023-03-15T09:27:20.170Z,1.10
2023-03-15T09:29:47.504Z,1.13
2023-03-15T09:32:15.033Z,1.25
2023-03-15T09:34:42.529Z,1.60
2023-03-15T09:37:10.108Z,1.45
2023-03-15T09:39:37.431Z,0.75
2023-03-15T09:42:06.482Z,0.70
2023-03-15T09:44:48.387Z,0.85
2023-03-15T09:47:40.272Z,0.60
2023-03-15T09:50:20.278Z,0.80
2023-03-15T09:52:50.543Z,0.68
2023-03-15T09:55:25.554Z,0.80
2023-03-15T09:58:01.189Z,0.50
2023-03-15T10:00:40.852Z,0.57
2023-03-15T10:03:15.773Z,0.60
2023-03-15T10:05:52.388Z,0.50
2023-03-15T10:08:19.804Z,0.50
2023-03-15T10:10:56.911Z,0.65
2023-03-15T10:13:38.896Z,0.40
2023-03-15T10:16:19.728Z,0.50
2023-03-15T10:19:07.036Z,0.60
2023-03-15T10:21:38.757Z,0.70
2023-03-15T10:24:19.732Z,0.70
2023-03-15T10:29:20.847Z,0.60
2023-03-15T10:31:48.486Z,0.50
2023-03-15T10:34:16.510Z,0.43
2023-03-15T10:36:47.955Z,0.60
2023-03-15T10:39:15.367Z,0.55
2023-03-15T10:41:44.579Z,0.57
2023-03-15T10:44:23.600Z,0.70
2023-03-15T10:47:22.185Z,0.60
2023-03-15T10:49:50.802Z,0.40
2023-03-15T10:52:38.631Z,0.40
2023-03-15T10:55:17.353Z,0.50
2023-03-15T10:57:59.988Z,0.40
2023-03-15T11:00:34.508Z,0.60
2023-03-15T11:03:17.511Z,0.32
2023-03-15T11:05:47.110Z,0.60
2023-03-15T11:08:16.370Z,0.30
2023-03-15T11:10:44.509Z,0.70
2023-03-15T11:13:12.592Z,0.40
2023-03-15T11:15:40.538Z,0.50
2023-03-15T11:18:16.821Z,0.40
2023-03-15T11:20:44.093Z,0.32
2023-03-15T11:23:17.179Z,0.30
2023-03-15T11:25:44.532Z,0.40
2023-03-15T11:28:18.440Z,0.40
2023-03-15T11:30:48.438Z,0.40
2023-03-15T11:33:46.076Z,0.38
2023-03-15T11:36:16.393Z,0.60
2023-03-15T11:38:44.880Z,0.57
2023-03-15T11:41:35.478Z,0.60
2023-03-15T11:44:21.480Z,0.60
2023-03-15T11:46:49.227Z,0.85
2023-03-15T11:49:37.058Z,0.80
2023-03-15T11:52:04.704Z,0.57
2023-03-15T11:54:32.446Z,0.70
2023-03-15T11:57:07.120Z,0.68
2023-03-15T11:59:36.987Z,1.05
2023-03-15T12:02:10.807Z,0.90
2023-03-15T12:04:44.768Z,0.82
2023-03-15T12:07:18.745Z,0.70
2023-03-15T12:09:58.543Z,1.10
2023-03-15T12:12:25.925Z,0.90
2023-03-15T12:15:15.026Z,1.15
2023-03-15T12:17:55.074Z,1.30
2023-03-15T12:21:05.087Z,1.63
2023-03-15T12:23:41.531Z,0.95
2023-03-15T12:26:12.663Z,1.65
2023-03-15T12:28:58.837Z,1.00
2023-03-15T12:31:26.346Z,0.90
2023-03-15T12:33:55.139Z,1.20
2023-03-15T12:36:35.607Z,1.58
2023-03-15T12:39:45.494Z,1.10
2023-03-15T12:42:31.412Z,0.95
2023-03-15T12:45:18.296Z,0.90
2023-03-15T12:47:54.284Z,1.38
2023-03-15T12:50:47.053Z,1.30
2023-03-15T12:53:36.595Z,1.40
2023-03-15T12:56:19.105Z,1.60
2023-03-15T12:58:47.334Z,1.17
2023-03-15T13:01:16.724Z,1.20
2023-03-15T13:03:44.189Z,1.52
2023-03-15T13:06:43.374Z,1.40
2023-03-15T13:09:27.405Z,1.42
2023-03-15T13:12:12.350Z,1.10
2023-03-15T13:14:48.206Z,1.42
2023-03-15T13:17:47.893Z,1.65
2023-03-15T13:20:24.161Z,1.30
2023-03-15T13:23:06.854Z,1.30
2023-03-15T13:25:41.844Z,1.40
2023-03-15T13:28:37.286Z,1.65
2023-03-15T13:31:21.063Z,1.23
2023-03-15T13:33:49.129Z,1.20
2023-03-15T13:36:17.850Z,1.20
2023-03-15T13:38:52.204Z,1.63
2023-03-15T13:41:29.825Z,1.45
2023-03-15T13:43:58.736Z,1.30
2023-03-15T13:46:26.914Z,1.40
2023-03-15T13:48:54.706Z,1.00
2023-03-15T13:51:33.213Z,1.92
2023-03-15T13:54:07.429Z,1.60
2023-03-15T13:56:49.658Z,1.33
2023-03-15T13:59:17.452Z,0.98
2023-03-15T14:01:44.907Z,1.80
2023-03-15T14:04:18.070Z,1.50
2023-03-15T14:06:48.676Z,1.50
2023-03-15T14:09:19.293Z,1.50
2023-03-15T14:11:46.710Z,1.35
2023-03-15T14:14:25.661Z,1.70
2023-03-15T14:17:04.964Z,1.60
2023-03-15T14:19:34.358Z,1.73
2023-03-15T14:22:13.561Z,1.92
2023-03-15T14:24:42.230Z,1.60
2023-03-15T14:27:20.819Z,1.80
2023-03-15T14:29:54.569Z,1.58
2023-03-15T14:32:28.759Z,1.40
2023-03-15T14:35:08.075Z,1.55
2023-03-15T14:37:40.188Z,1.35
2023-03-15T14:40:36.209Z,1.90
2023-03-15T14:43:05.725Z,1.33
2023-03-15T14:45:33.918Z,1.15
2023-03-15T14:48:05.610Z,1.60
2023-03-15T14:50:37.646Z,1.20
2023-03-15T14:53:05.264Z,1.15
2023-03-15T14:55:34.996Z,1.48
2023-03-15T14:58:03.357Z,0.90
2023-03-15T15:00:31.299Z,0.90
2023-03-15T15:02:58.634Z,1.00
2023-03-15T15:05:30.956Z,1.02
2023-03-15T15:08:06.951Z,0.70
2023-03-15T15:10:34.841Z,0.82
2023-03-15T15:13:07.085Z,0.60
2023-03-15T15:15:47.459Z,0.80
2023-03-15T15:18:18.793Z,0.98
2023-03-15T15:20:46.359Z,0.70
2023-03-15T15:23:25.575Z,0.80
2023-03-15T15:25:54.628Z,1.13
2023-03-15T15:28:33.712Z,0.70
2023-03-15T15:31:05.767Z,0.80
2023-03-15T15:33:34.092Z,1.10
2023-03-15T15:36:01.587Z,1.10
2023-03-15T15:38:34.846Z,0.80
2023-03-15T15:41:02.263Z,0.60
2023-03-15T15:43:31.695Z,0.45
2023-03-15T15:46:00.428Z,0.60
2023-03-15T15:48:27.806Z,0.60
2023-03-15T15:50:55.066Z,0.60
2023-03-15T15:53:22.384Z,0.43
2023-03-15T15:55:49.669Z,0.80
2023-03-15T15:58:17.588Z,0.70
2023-03-15T16:00:45.125Z,0.93
2023-03-15T16:03:16.250Z,0.90
2023-03-15T16:05:43.678Z,0.70
2023-03-15T16:08:30.601Z,0.68
2023-03-15T16:10:57.842Z,0.90
2023-03-15T16:13:25.100Z,0.90
2023-03-15T16:15:52.725Z,1.10
2023-03-15T16:18:20.068Z,1.02
2023-03-15T16:20:47.316Z,1.08
2023-03-15T16:23:20.429Z,1.05
2023-03-15T16:25:55.541Z,0.80
2023-03-15T16:28:23.864Z,0.88
2023-03-15T16:30:51.338Z,0.85
2023-03-15T16:33:20.279Z,1.05
2023-03-15T16:35:50.158Z,1.35
2023-03-15T16:38:24.420Z,1.35
2023-03-15T16:40:52.415Z,0.93
2023-03-15T16:43:19.982Z,1.00
2023-03-15T16:45:47.515Z,1.25
2023-03-15T16:48:14.858Z,1.10
2023-03-15T16:50:42.451Z,1.20
2023-03-15T16:53:10.400Z,2.08
2023-03-15T16:55:37.805Z,1.52
2023-03-15T16:58:15.243Z,1.13
2023-03-15T17:00:45.003Z,1.52
2023-03-15T17:03:12.673Z,1.63
2023-03-15T17:05:41.008Z,1.00
2023-03-15T17:08:11.428Z,1.13
2023-03-15T17:10:38.723Z,1.30
2023-03-15T17:13:06.014Z,0.98
2023-03-15T17:15:33.329Z,1.17
2023-03-15T17:18:02.850Z,1.30
2023-03-15T17:20:30.336Z,1.30
2023-03-15T17:23:01.406Z,1.73
2023-03-15T17:25:29.890Z,1.33
2023-03-15T17:27:57.165Z,1.10
2023-03-15T17:30:32.525Z,1.20
2023-03-15T17:32:59.961Z,1.17
2023-03-15T17:35:29.160Z,1.10
2023-03-15T17:37:56.483Z,1.10
2023-03-15T17:40:25.723Z,1.30
2023-03-15T17:42:54.010Z,1.05
2023-03-15T17:45:22.939Z,1.83
2023-03-15T17:47:50.544Z,1.58
2023-03-15T17:50:18.611Z,1.27
2023-03-15T17:52:46.406Z,0.80
2023-03-15T17:55:18.605Z,0.82
2023-03-15T17:57:54.813Z,0.75
2023-03-15T18:00:23.675Z,0.60
2023-03-15T18:02:55.552Z,0.80
2023-03-15T18:05:25.079Z,0.75
2023-03-15T18:08:00.242Z,1.02
2023-03-15T18:10:36.224Z,0.85
2023-03-15T18:13:04.029Z,1.15
2023-03-15T18:15:31.640Z,1.13
2023-03-15T18:17:58.969Z,1.45
2023-03-15T18:20:26.298Z,1.10
2023-03-15T18:22:53.586Z,1.00
2023-03-15T18:25:25.945Z,1.10
2023-03-15T18:27:53.290Z,1.15
2023-03-15T18:30:22.319Z,1.17
2023-03-15T18:32:50.122Z,0.88
2023-03-15T18:35:27.680Z,1.20
2023-03-15T18:37:57.551Z,1.27
2023-03-15T18:40:26.641Z,0.90
2023-03-15T18:42:55.074Z,0.75
2023-03-15T18:45:24.243Z,0.90
2023-03-15T18:47:51.633Z,1.17
2023-03-15T18:50:22.386Z,1.42
2023-03-15T18:52:49.786Z,0.80
2023-03-15T18:55:18.255Z,1.00
2023-03-15T18:57:46.346Z,0.70
2023-03-15T19:00:23.843Z,0.63
2023-03-15T19:02:51.184Z,1.20
2023-03-15T19:05:18.487Z,1.63
2023-03-15T19:07:47.720Z,1.25
2023-03-15T19:10:16.880Z,1.50
2023-03-15T19:12:47.324Z,1.15
2023-03-15T19:15:19.697Z,1.90
2023-03-15T19:17:48.303Z,1.42
2023-03-15T19:20:17.427Z,2.35
2023-03-15T19:22:45.262Z,1.70
2023-03-15T19:25:13.993Z,1.73
2023-03-15T19:27:42.151Z,1.30
2023-03-15T19:30:12.063Z,1.95
2023-03-15T19:32:40.550Z,1.70
2023-03-15T19:35:08.345Z,1.58
2023-03-15T19:37:35.900Z,1.77
2023-03-15T19:40:03.881Z,1.60
2023-03-15T19:42:31.119Z,1.50
2023-03-15T19:44:58.454Z,1.73
2023-03-15T19:47:25.787Z,1.85
2023-03-15T19:49:53.146Z,1.90
2023-03-15T19:52:21.313Z,2.33
2023-03-15T19:54:50.970Z,1.80
2023-03-15T19:57:18.307Z,2.40
2023-03-15T19:59:45.624Z,1.98
2023-03-15T20:02:13.388Z,2.28
2023-03-15T20:04:40.761Z,1.73
2023-03-15T20:07:11.195Z,1.70
2023-03-15T20:09:39.332Z,1.98
2023-03-15T20:12:11.006Z,1.48
2023-03-15T20:14:38.533Z,1.77
2023-03-15T20:17:05.923Z,1.50
2023-03-15T20:19:33.428Z,1.67
2023-03-15T20:22:00.686Z,1.88
2023-03-15T20:24:27.986Z,1.45
2023-03-15T20:26:55.318Z,1.60
2023-03-15T20:29:22.630Z,1.75
2023-03-15T20:31:50.980Z,1.92
2023-03-15T20:34:18.333Z,1.80
2023-03-15T20:36:45.674Z,1.73
2023-03-15T20:39:13.049Z,1.73
2023-03-15T20:41:40.745Z,1.67
2023-03-15T20:44:08.034Z,1.50
2023-03-15T20:46:35.636Z,1.92
2023-03-15T20:49:02.937Z,1.77
2023-03-15T20:51:30.225Z,1.73
2023-03-15T20:53:57.485Z,1.42
2023-03-15T20:56:25.452Z,1.70
2023-03-15T20:58:52.827Z,1.60
2023-03-15T21:01:20.371Z,1.95
2023-03-15T21:03:48.217Z,1.55
2023-03-15T21:06:15.768Z,1.50
2023-03-15T21:08:43.931Z,1.52
2023-03-15T21:11:11.383Z,1.50
2023-03-15T21:13:38.789Z,2.00
2023-03-15T21:16:06.449Z,1.90
2023-03-15T21:18:35.514Z,2.00
2023-03-15T21:21:04.964Z,2.15
2023-03-15T21:23:32.277Z,2.30
2023-03-15T21:26:02.007Z,1.90
2023-03-15T21:28:29.747Z,2.08
2023-03-15T21:30:57.137Z,2.13
2023-03-15T21:33:25.846Z,2.00
2023-03-15T21:35:55.828Z,2.08
2023-03-15T21:38:23.314Z,1.88
2023-03-15T21:40:58.356Z,2.00
2023-03-15T21:43:32.773Z,2.17
2023-03-15T21:46:01.594Z,2.17
2023-03-15T21:48:29.097Z,2.47
2023-03-15T21:50:56.811Z,2.08
2023-03-15T21:53:24.134Z,1.80
2023-03-15T21:55:53.721Z,2.38
2023-03-15T21:58:21.161Z,2.17
2023-03-15T22:00:48.634Z,1.92
2023-03-15T22:03:18.922Z,1.60
2023-03-15T22:05:46.538Z,2.00
2023-03-15T22:08:13.975Z,1.95
2023-03-15T22:10:41.271Z,2.00
2023-03-15T22:13:08.609Z,2.25
2023-03-15T22:15:35.859Z,2.30
2023-03-15T22:18:04.024Z,1.98
2023-03-15T22:20:31.346Z,2.20
2023-03-15T22:22:58.628Z,2.00
2023-03-15T22:25:25.981Z,1.90
2023-03-15T22:27:53.334Z,2.22
2023-03-15T22:30:20.704Z,2.17
2023-03-15T22:32:48.109Z,1.65
2023-03-15T22:35:16.117Z,2.05
2023-03-15T22:37:43.408Z,2.20
2023-03-15T22:40:16.588Z,1.88
2023-03-15T22:42:44.371Z,1.92
2023-03-15T22:45:11.788Z,1.90
2023-03-15T22:47:39.072Z,2.53
2023-03-15T22:50:06.644Z,2.22
2023-03-15T22:52:34.066Z,2.15
2023-03-15T22:55:01.333Z,2.40
2023-03-15T22:57:28.691Z,1.95
2023-03-15T22:59:56.343Z,2.42
2023-03-15T23:02:23.669Z,2.05
2023-03-15T23:04:51.997Z,1.80
2023-03-15T23:07:19.360Z,2.08
2023-03-15T23:09:46.671Z,1.90
2023-03-15T23:12:15.371Z,2.13
2023-03-15T23:14:44.873Z,1.90
2023-03-15T23:17:12.164Z,1.83
2023-03-15T23:19:40.506Z,1.90
2023-03-15T23:22:08.459Z,2.22
2023-03-15T23:24:35.746Z,1.83
2023-03-15T23:27:05.763Z,2.30
2023-03-15T23:29:40.672Z,1.80
2023-03-15T23:32:14.539Z,1.88
2023-03-15T23:34:43.042Z,2.22
2023-03-15T23:37:15.297Z,1.90
2023-03-15T23:39:42.779Z,1.90
2023-03-15T23:42:10.400Z,1.80
2023-03-15T23:44:38.867Z,1.92
2023-03-15T23:47:06.619Z,1.60
2023-03-15T23:49:34.293Z,1.70
2023-03-15T23:52:05.661Z,1.60
2023-03-15T23:54:41.280Z,1.95
2023-03-15T23:57:09.312Z,1.77
2023-03-15T23:59:36.909Z,1.75
